sensor_id;sensor_type;location;lat;lon;timestamp;P1;durP1;ratioP1;P2;durP2;ratioP2
84355;SDS011;74539;43.518;1.504;2023-12-14T00:00:24;2.55;;;0.60;;
84355;SDS011;74539;43.518;1.504;2023-12-14T00:02:49;3.60;;;0.43;;
84355;SDS011;74539;43.518;1.504;2023-12-14T00:05:15;1.15;;;0.50;;
84355;SDS011;74539;43.518;1.504;2023-12-14T00:07:40;2.15;;;0.60;;
84355;SDS011;74539;43.518;1.504;2023-12-14T00:10:06;1.77;;;0.57;;
84355;SDS011;74539;43.518;1.504;2023-12-14T00:12:32;3.20;;;0.70;;
84355;SDS011;74539;43.518;1.504;2023-12-14T00:14:57;1.30;;;0.52;;
84355;SDS011;74539;43.518;1.504;2023-12-14T00:17:22;1.70;;;0.52;;
84355;SDS011;74539;43.518;1.504;2023-12-14T00:19:48;3.40;;;0.50;;
84355;SDS011;74539;43.518;1.504;2023-12-14T00:22:13;0.98;;;0.40;;
84355;SDS011;74539;43.518;1.504;2023-12-14T00:24:39;1.75;;;0.60;;
84355;SDS011;74539;43.518;1.504;2023-12-14T00:27:04;3.30;;;0.70;;
84355;SDS011;74539;43.518;1.504;2023-12-14T00:29:30;1.73;;;0.60;;
84355;SDS011;74539;43.518;1.504;2023-12-14T00:31:55;1.75;;;0.40;;
84355;SDS011;74539;43.518;1.504;2023-12-14T00:34:21;1.75;;;0.50;;
84355;SDS011;74539;43.518;1.504;2023-12-14T00:36:46;2.75;;;0.73;;
84355;SDS011;74539;43.518;1.504;2023-12-14T00:39:12;1.85;;;0.70;;
84355;SDS011;74539;43.518;1.504;2023-12-14T00:41:38;2.25;;;0.50;;
84355;SDS011;74539;43.518;1.504;2023-12-14T00:44:03;1.75;;;0.50;;
84355;SDS011;74539;43.518;1.504;2023-12-14T00:46:29;1.67;;;0.63;;
84355;SDS011;74539;43.518;1.504;2023-12-14T00:48:54;2.40;;;0.70;;
84355;SDS011;74539;43.518;1.504;2023-12-14T00:51:20;1.00;;;0.40;;
84355;SDS011;74539;43.518;1.504;2023-12-14T00:53:45;2.83;;;0.60;;
84355;SDS011;74539;43.518;1.504;2023-12-14T00:56:10;2.72;;;0.52;;
84355;SDS011;74539;43.518;1.504;2023-12-14T00:58:36;3.20;;;0.70;;
84355;SDS011;74539;43.518;1.504;2023-12-14T01:01:02;2.58;;;0.60;;
84355;SDS011;74539;43.518;1.504;2023-12-14T01:03:27;1.33;;;0.63;;
84355;SDS011;74539;43.518;1.504;2023-12-14T01:05:53;1.85;;;0.52;;
84355;SDS011;74539;43.518;1.504;2023-12-14T01:08:18;3.38;;;0.63;;
84355;SDS011;74539;43.518;1.504;2023-12-14T01:10:43;3.83;;;0.70;;
84355;SDS011;74539;43.518;1.504;2023-12-14T01:13:09;3.47;;;0.60;;
84355;SDS011;74539;43.518;1.504;2023-12-14T01:15:35;2.65;;;0.90;;
84355;SDS011;74539;43.518;1.504;2023-12-14T01:18:00;1.65;;;0.68;;
84355;SDS011;74539;43.518;1.504;2023-12-14T01:20:26;3.72;;;0.52;;
84355;SDS011;74539;43.518;1.504;2023-12-14T01:22:52;3.13;;;0.60;;
84355;SDS011;74539;43.518;1.504;2023-12-14T01:25:17;2.08;;;0.70;;
84355;SDS011;74539;43.518;1.504;2023-12-14T01:27:43;1.77;;;0.60;;
84355;SDS011;74539;43.518;1.504;2023-12-14T01:30:08;1.08;;;0.52;;
84355;SDS011;74539;43.518;1.504;2023-12-14T01:32:34;2.42;;;0.60;;
84355;SDS011;74539;43.518;1.504;2023-12-14T01:35:00;1.42;;;0.60;;
84355;SDS011;74539;43.518;1.504;2023-12-14T01:37:25;2.28;;;0.80;;
84355;SDS011;74539;43.518;1.504;2023-12-14T01:39:50;6.50;;;0.98;;
84355;SDS011;74539;43.518;1.504;2023-12-14T01:42:16;2.40;;;0.80;;
84355;SDS011;74539;43.518;1.504;2023-12-14T01:44:41;2.25;;;0.70;;
84355;SDS011;74539;43.518;1.504;2023-12-14T01:47:07;3.08;;;0.70;;
84355;SDS011;74539;43.518;1.504;2023-12-14T01:49:32;2.58;;;0.70;;
84355;SDS011;74539;43.518;1.504;2023-12-14T01:51:58;2.92;;;0.75;;
84355;SDS011;74539;43.518;1.504;2023-12-14T01:54:23;3.20;;;0.65;;
84355;SDS011;74539;43.518;1.504;2023-12-14T01:56:48;3.63;;;0.88;;
84355;SDS011;74539;43.518;1.504;2023-12-14T01:59:14;3.28;;;0.80;;
84355;SDS011;74539;43.518;1.504;2023-12-14T02:01:44;3.40;;;1.00;;
84355;SDS011;74539;43.518;1.504;2023-12-14T02:04:11;2.75;;;0.85;;
84355;SDS011;74539;43.518;1.504;2023-12-14T02:06:37;5.00;;;0.95;;
84355;SDS011;74539;43.518;1.504;2023-12-14T02:09:03;4.82;;;1.00;;
84355;SDS011;74539;43.518;1.504;2023-12-14T02:11:29;2.13;;;0.85;;
84355;SDS011;74539;43.518;1.504;2023-12-14T02:13:55;4.70;;;0.90;;
84355;SDS011;74539;43.518;1.504;2023-12-14T02:16:20;1.20;;;0.68;;
84355;SDS011;74539;43.518;1.504;2023-12-14T02:18:46;2.92;;;0.85;;
84355;SDS011;74539;43.518;1.504;2023-12-14T02:21:11;5.07;;;0.80;;
84355;SDS011;74539;43.518;1.504;2023-12-14T02:23:45;2.35;;;0.80;;
84355;SDS011;74539;43.518;1.504;2023-12-14T02:26:14;4.53;;;0.90;;
84355;SDS011;74539;43.518;1.504;2023-12-14T02:28:40;3.22;;;0.70;;
84355;SDS011;74539;43.518;1.504;2023-12-14T02:31:06;3.70;;;0.70;;
84355;SDS011;74539;43.518;1.504;2023-12-14T02:33:31;3.80;;;1.02;;
84355;SDS011;74539;43.518;1.504;2023-12-14T02:35:57;3.15;;;0.80;;
84355;SDS011;74539;43.518;1.504;2023-12-14T02:38:22;4.25;;;1.00;;
84355;SDS011;74539;43.518;1.504;2023-12-14T02:40:48;4.63;;;0.80;;
84355;SDS011;74539;43.518;1.504;2023-12-14T02:43:16;2.38;;;1.00;;
84355;SDS011;74539;43.518;1.504;2023-12-14T02:45:41;2.20;;;0.82;;
84355;SDS011;74539;43.518;1.504;2023-12-14T02:48:07;1.20;;;0.80;;
84355;SDS011;74539;43.518;1.504;2023-12-14T02:50:32;4.15;;;0.73;;
84355;SDS011;74539;43.518;1.504;2023-12-14T02:52:58;1.67;;;0.52;;
84355;SDS011;74539;43.518;1.504;2023-12-14T02:55:23;3.70;;;0.93;;
84355;SDS011;74539;43.518;1.504;2023-12-14T02:57:49;2.05;;;0.90;;
84355;SDS011;74539;43.518;1.504;2023-12-14T03:00:14;1.95;;;0.65;;
84355;SDS011;74539;43.518;1.504;2023-12-14T03:02:40;3.70;;;0.80;;
84355;SDS011;74539;43.518;1.504;2023-12-14T03:05:05;1.63;;;0.85;;
84355;SDS011;74539;43.518;1.504;2023-12-14T03:07:31;3.15;;;0.77;;
84355;SDS011;74539;43.518;1.504;2023-12-14T03:09:56;4.90;;;0.90;;
84355;SDS011;74539;43.518;1.504;2023-12-14T03:12:22;2.15;;;0.85;;
84355;SDS011;74539;43.518;1.504;2023-12-14T03:14:47;3.45;;;1.10;;
84355;SDS011;74539;43.518;1.504;2023-12-14T03:17:13;3.92;;;1.15;;
84355;SDS011;74539;43.518;1.504;2023-12-14T03:19:39;4.25;;;1.00;;
84355;SDS011;74539;43.518;1.504;2023-12-14T03:22:06;4.03;;;1.10;;
84355;SDS011;74539;43.518;1.504;2023-12-14T03:24:31;1.60;;;0.90;;
84355;SDS011;74539;43.518;1.504;2023-12-14T03:26:57;2.50;;;0.77;;
84355;SDS011;74539;43.518;1.504;2023-12-14T03:29:22;2.70;;;0.90;;
84355;SDS011;74539;43.518;1.504;2023-12-14T03:31:48;3.30;;;0.80;;
84355;SDS011;74539;43.518;1.504;2023-12-14T03:34:13;2.95;;;1.10;;
84355;SDS011;74539;43.518;1.504;2023-12-14T03:36:39;3.15;;;0.85;;
84355;SDS011;74539;43.518;1.504;2023-12-14T03:39:04;1.80;;;0.95;;
84355;SDS011;74539;43.518;1.504;2023-12-14T03:41:30;2.53;;;1.02;;
84355;SDS011;74539;43.518;1.504;2023-12-14T03:43:56;2.47;;;0.90;;
84355;SDS011;74539;43.518;1.504;2023-12-14T03:46:22;2.00;;;0.93;;
84355;SDS011;74539;43.518;1.504;2023-12-14T03:48:47;3.55;;;1.20;;
84355;SDS011;74539;43.518;1.504;2023-12-14T03:51:13;1.70;;;0.80;;
84355;SDS011;74539;43.518;1.504;2023-12-14T03:53:38;3.17;;;1.10;;
84355;SDS011;74539;43.518;1.504;2023-12-14T03:56:05;3.03;;;1.00;;
84355;SDS011;74539;43.518;1.504;2023-12-14T03:58:30;3.00;;;0.98;;
84355;SDS011;74539;43.518;1.504;2023-12-14T04:00:56;3.63;;;1.10;;
84355;SDS011;74539;43.518;1.504;2023-12-14T04:03:21;2.53;;;0.98;;
84355;SDS011;74539;43.518;1.504;2023-12-14T04:05:47;1.67;;;0.80;;
84355;SDS011;74539;43.518;1.504;2023-12-14T04:08:12;3.17;;;1.05;;
84355;SDS011;74539;43.518;1.504;2023-12-14T04:10:38;4.43;;;1.02;;
84355;SDS011;74539;43.518;1.504;2023-12-14T04:13:03;3.80;;;1.00;;
84355;SDS011;74539;43.518;1.504;2023-12-14T04:15:29;2.17;;;1.08;;
84355;SDS011;74539;43.518;1.504;2023-12-14T04:17:54;5.00;;;1.17;;
84355;SDS011;74539;43.518;1.504;2023-12-14T04:20:20;6.80;;;1.20;;
84355;SDS011;74539;43.518;1.504;2023-12-14T04:22:45;2.55;;;0.98;;
84355;SDS011;74539;43.518;1.504;2023-12-14T04:25:11;3.92;;;1.38;;
84355;SDS011;74539;43.518;1.504;2023-12-14T04:27:36;5.15;;;1.35;;
84355;SDS011;74539;43.518;1.504;2023-12-14T04:30:02;2.85;;;1.17;;
84355;SDS011;74539;43.518;1.504;2023-12-14T04:32:29;5.32;;;1.50;;
84355;SDS011;74539;43.518;1.504;2023-12-14T04:34:55;6.47;;;1.45;;
84355;SDS011;74539;43.518;1.504;2023-12-14T04:37:20;2.13;;;1.40;;
84355;SDS011;74539;43.518;1.504;2023-12-14T04:39:46;3.85;;;1.40;;
84355;SDS011;74539;43.518;1.504;2023-12-14T04:42:11;2.92;;;1.10;;
84355;SDS011;74539;43.518;1.504;2023-12-14T04:44:37;2.65;;;1.40;;
84355;SDS011;74539;43.518;1.504;2023-12-14T04:47:02;4.55;;;1.33;;
84355;SDS011;74539;43.518;1.504;2023-12-14T04:49:28;2.45;;;1.27;;
84355;SDS011;74539;43.518;1.504;2023-12-14T04:51:53;2.95;;;1.10;;
84355;SDS011;74539;43.518;1.504;2023-12-14T04:54:19;3.20;;;1.35;;
84355;SDS011;74539;43.518;1.504;2023-12-14T04:56:47;2.55;;;1.17;;
84355;SDS011;74539;43.518;1.504;2023-12-14T04:59:13;2.33;;;1.30;;
84355;SDS011;74539;43.518;1.504;2023-12-14T05:01:38;2.30;;;1.33;;
84355;SDS011;74539;43.518;1.504;2023-12-14T05:04:03;3.00;;;1.30;;
84355;SDS011;74539;43.518;1.504;2023-12-14T05:06:29;3.55;;;1.27;;
84355;SDS011;74539;43.518;1.504;2023-12-14T05:08:55;2.05;;;1.20;;
84355;SDS011;74539;43.518;1.504;2023-12-14T05:11:20;1.52;;;1.10;;
84355;SDS011;74539;43.518;1.504;2023-12-14T05:13:46;3.33;;;1.30;;
84355;SDS011;74539;43.518;1.504;2023-12-14T05:16:14;2.20;;;1.20;;
84355;SDS011;74539;43.518;1.504;2023-12-14T05:18:40;2.60;;;1.30;;
84355;SDS011;74539;43.518;1.504;2023-12-14T05:21:05;2.78;;;1.30;;
84355;SDS011;74539;43.518;1.504;2023-12-14T05:23:31;2.88;;;1.13;;
84355;SDS011;74539;43.518;1.504;2023-12-14T05:25:56;3.03;;;1.27;;
84355;SDS011;74539;43.518;1.504;2023-12-14T05:28:22;3.22;;;1.25;;
84355;SDS011;74539;43.518;1.504;2023-12-14T05:30:48;5.65;;;1.40;;
84355;SDS011;74539;43.518;1.504;2023-12-14T05:33:13;6.32;;;2.35;;
84355;SDS011;74539;43.518;1.504;2023-12-14T05:35:39;3.00;;;1.20;;
84355;SDS011;74539;43.518;1.504;2023-12-14T05:38:04;3.80;;;1.58;;
84355;SDS011;74539;43.518;1.504;2023-12-14T05:40:30;4.28;;;1.25;;
84355;SDS011;74539;43.518;1.504;2023-12-14T05:42:56;2.80;;;1.25;;
84355;SDS011;74539;43.518;1.504;2023-12-14T05:45:22;2.95;;;1.20;;
84355;SDS011;74539;43.518;1.504;2023-12-14T05:47:47;4.00;;;1.33;;
84355;SDS011;74539;43.518;1.504;2023-12-14T05:50:13;4.38;;;1.40;;
84355;SDS011;74539;43.518;1.504;2023-12-14T05:52:38;5.28;;;1.40;;
84355;SDS011;74539;43.518;1.504;2023-12-14T05:55:07;3.47;;;1.45;;
84355;SDS011;74539;43.518;1.504;2023-12-14T05:57:35;6.20;;;1.33;;
84355;SDS011;74539;43.518;1.504;2023-12-14T06:00:00;3.88;;;1.40;;
84355;SDS011;74539;43.518;1.504;2023-12-14T06:02:26;3.92;;;1.23;;
84355;SDS011;74539;43.518;1.504;2023-12-14T06:04:52;3.58;;;1.30;;
84355;SDS011;74539;43.518;1.504;2023-12-14T06:07:17;3.40;;;1.33;;
84355;SDS011;74539;43.518;1.504;2023-12-14T06:09:43;3.08;;;1.38;;
84355;SDS011;74539;43.518;1.504;2023-12-14T06:12:09;5.25;;;1.40;;
84355;SDS011;74539;43.518;1.504;2023-12-14T06:14:34;8.30;;;1.67;;
84355;SDS011;74539;43.518;1.504;2023-12-14T06:17:00;5.20;;;1.58;;
84355;SDS011;74539;43.518;1.504;2023-12-14T06:19:25;5.65;;;1.40;;
84355;SDS011;74539;43.518;1.504;2023-12-14T06:21:51;4.13;;;1.70;;
84355;SDS011;74539;43.518;1.504;2023-12-14T06:24:17;3.13;;;1.52;;
84355;SDS011;74539;43.518;1.504;2023-12-14T06:26:45;5.05;;;1.65;;
84355;SDS011;74539;43.518;1.504;2023-12-14T06:29:11;4.45;;;1.40;;
84355;SDS011;74539;43.518;1.504;2023-12-14T06:31:37;5.55;;;1.35;;
84355;SDS011;74539;43.518;1.504;2023-12-14T06:34:04;4.15;;;1.50;;
84355;SDS011;74539;43.518;1.504;2023-12-14T06:36:30;6.05;;;1.38;;
84355;SDS011;74539;43.518;1.504;2023-12-14T06:38:57;3.67;;;1.33;;
84355;SDS011;74539;43.518;1.504;2023-12-14T06:41:23;8.60;;;1.52;;
84355;SDS011;74539;43.518;1.504;2023-12-14T06:43:49;2.45;;;1.33;;
84355;SDS011;74539;43.518;1.504;2023-12-14T06:46:15;5.03;;;1.35;;
84355;SDS011;74539;43.518;1.504;2023-12-14T06:48:41;3.38;;;1.30;;
84355;SDS011;74539;43.518;1.504;2023-12-14T06:51:07;3.80;;;1.38;;
84355;SDS011;74539;43.518;1.504;2023-12-14T06:53:33;3.47;;;1.70;;
84355;SDS011;74539;43.518;1.504;2023-12-14T06:55:59;5.28;;;1.40;;
84355;SDS011;74539;43.518;1.504;2023-12-14T06:58:24;4.10;;;1.58;;
84355;SDS011;74539;43.518;1.504;2023-12-14T07:00:50;5.97;;;1.42;;
84355;SDS011;74539;43.518;1.504;2023-12-14T07:03:15;4.85;;;1.23;;
84355;SDS011;74539;43.518;1.504;2023-12-14T07:05:41;3.92;;;1.50;;
84355;SDS011;74539;43.518;1.504;2023-12-14T07:08:06;5.45;;;1.73;;
84355;SDS011;74539;43.518;1.504;2023-12-14T07:10:32;4.03;;;1.48;;
84355;SDS011;74539;43.518;1.504;2023-12-14T07:12:57;6.60;;;1.40;;
84355;SDS011;74539;43.518;1.504;2023-12-14T07:15:24;2.67;;;1.40;;
84355;SDS011;74539;43.518;1.504;2023-12-14T07:17:51;2.35;;;1.10;;
84355;SDS011;74539;43.518;1.504;2023-12-14T07:20:16;5.18;;;1.25;;
84355;SDS011;74539;43.518;1.504;2023-12-14T07:22:41;3.97;;;1.30;;
84355;SDS011;74539;43.518;1.504;2023-12-14T07:25:08;5.28;;;1.30;;
84355;SDS011;74539;43.518;1.504;2023-12-14T07:27:33;5.20;;;1.38;;
84355;SDS011;74539;43.518;1.504;2023-12-14T07:29:59;5.20;;;1.25;;
84355;SDS011;74539;43.518;1.504;2023-12-14T07:32:25;6.22;;;1.25;;
84355;SDS011;74539;43.518;1.504;2023-12-14T07:34:51;5.38;;;1.30;;
84355;SDS011;74539;43.518;1.504;2023-12-14T07:37:17;4.18;;;1.20;;
84355;SDS011;74539;43.518;1.504;2023-12-14T07:39:43;2.92;;;1.20;;
84355;SDS011;74539;43.518;1.504;2023-12-14T07:42:08;4.47;;;1.40;;
84355;SDS011;74539;43.518;1.504;2023-12-14T07:44:34;4.25;;;1.35;;
84355;SDS011;74539;43.518;1.504;2023-12-14T07:47:01;3.53;;;1.27;;
84355;SDS011;74539;43.518;1.504;2023-12-14T07:49:27;7.03;;;1.75;;
84355;SDS011;74539;43.518;1.504;2023-12-14T07:51:53;4.35;;;1.13;;
84355;SDS011;74539;43.518;1.504;2023-12-14T07:54:18;9.32;;;1.52;;
84355;SDS011;74539;43.518;1.504;2023-12-14T07:56:44;3.97;;;1.30;;
84355;SDS011;74539;43.518;1.504;2023-12-14T07:59:10;5.80;;;1.17;;
84355;SDS011;74539;43.518;1.504;2023-12-14T08:01:36;6.43;;;1.40;;
84355;SDS011;74539;43.518;1.504;2023-12-14T08:04:02;3.47;;;1.50;;
84355;SDS011;74539;43.518;1.504;2023-12-14T08:06:29;4.68;;;1.55;;
84355;SDS011;74539;43.518;1.504;2023-12-14T08:08:55;4.63;;;1.80;;
84355;SDS011;74539;43.518;1.504;2023-12-14T08:11:23;3.72;;;1.35;;
84355;SDS011;74539;43.518;1.504;2023-12-14T08:13:48;6.07;;;1.10;;
84355;SDS011;74539;43.518;1.504;2023-12-14T08:16:14;3.58;;;1.70;;
84355;SDS011;74539;43.518;1.504;2023-12-14T08:18:40;4.88;;;1.40;;
84355;SDS011;74539;43.518;1.504;2023-12-14T08:21:07;3.22;;;1.25;;
84355;SDS011;74539;43.518;1.504;2023-12-14T08:23:32;7.57;;;2.05;;
84355;SDS011;74539;43.518;1.504;2023-12-14T08:25:58;4.65;;;1.80;;
84355;SDS011;74539;43.518;1.504;2023-12-14T08:28:24;8.10;;;1.70;;
84355;SDS011;74539;43.518;1.504;2023-12-14T08:30:50;3.38;;;1.60;;
84355;SDS011;74539;43.518;1.504;2023-12-14T08:33:16;8.20;;;1.20;;
84355;SDS011;74539;43.518;1.504;2023-12-14T08:35:41;3.95;;;1.08;;
84355;SDS011;74539;43.518;1.504;2023-12-14T08:38:07;4.68;;;1.27;;
84355;SDS011;74539;43.518;1.504;2023-12-14T08:40:32;4.07;;;1.10;;
84355;SDS011;74539;43.518;1.504;2023-12-14T08:42:58;3.58;;;1.02;;
84355;SDS011;74539;43.518;1.504;2023-12-14T08:45:24;7.70;;;1.30;;
84355;SDS011;74539;43.518;1.504;2023-12-14T08:47:49;4.78;;;1.20;;
84355;SDS011;74539;43.518;1.504;2023-12-14T08:50:15;5.78;;;1.42;;
84355;SDS011;74539;43.518;1.504;2023-12-14T08:52:41;4.80;;;1.50;;
84355;SDS011;74539;43.518;1.504;2023-12-14T08:55:07;5.80;;;1.15;;
84355;SDS011;74539;43.518;1.504;2023-12-14T08:57:33;6.65;;;1.50;;
84355;SDS011;74539;43.518;1.504;2023-12-14T09:00:00;3.95;;;0.98;;
84355;SDS011;74539;43.518;1.504;2023-12-14T09:02:26;3.85;;;1.30;;
84355;SDS011;74539;43.518;1.504;2023-12-14T09:04:51;6.40;;;1.20;;
84355;SDS011;74539;43.518;1.504;2023-12-14T09:07:17;5.57;;;1.23;;
84355;SDS011;74539;43.518;1.504;2023-12-14T09:09:43;4.53;;;1.40;;
84355;SDS011;74539;43.518;1.504;2023-12-14T09:12:09;4.72;;;1.23;;
84355;SDS011;74539;43.518;1.504;2023-12-14T09:14:35;5.57;;;2.40;;
84355;SDS011;74539;43.518;1.504;2023-12-14T09:17:01;3.67;;;1.25;;
84355;SDS011;74539;43.518;1.504;2023-12-14T09:19:26;7.47;;;1.50;;
84355;SDS011;74539;43.518;1.504;2023-12-14T09:21:54;3.80;;;1.20;;
84355;SDS011;74539;43.518;1.504;2023-12-14T09:24:20;5.20;;;1.02;;
84355;SDS011;74539;43.518;1.504;2023-12-14T09:26:45;3.95;;;0.98;;
84355;SDS011;74539;43.518;1.504;2023-12-14T09:29:10;5.70;;;1.10;;
84355;SDS011;74539;43.518;1.504;2023-12-14T09:31:36;3.10;;;1.00;;
84355;SDS011;74539;43.518;1.504;2023-12-14T09:34:01;4.90;;;1.45;;
84355;SDS011;74539;43.518;1.504;2023-12-14T09:36:27;3.25;;;1.00;;
84355;SDS011;74539;43.518;1.504;2023-12-14T09:38:52;6.80;;;1.30;;
84355;SDS011;74539;43.518;1.504;2023-12-14T09:41:18;5.40;;;0.93;;
84355;SDS011;74539;43.518;1.504;2023-12-14T09:43:44;2.58;;;0.90;;
84355;SDS011;74539;43.518;1.504;2023-12-14T09:46:10;5.18;;;1.27;;
84355;SDS011;74539;43.518;1.504;2023-12-14T09:48:36;3.78;;;1.13;;
84355;SDS011;74539;43.518;1.504;2023-12-14T09:51:02;3.88;;;1.20;;
84355;SDS011;74539;43.518;1.504;2023-12-14T09:53:28;5.03;;;2.17;;
84355;SDS011;74539;43.518;1.504;2023-12-14T09:55:53;7.63;;;2.30;;
84355;SDS011;74539;43.518;1.504;2023-12-14T09:58:19;6.05;;;1.88;;
84355;SDS011;74539;43.518;1.504;2023-12-14T10:00:45;5.05;;;1.00;;
84355;SDS011;74539;43.518;1.504;2023-12-14T10:03:17;5.13;;;1.50;;
84355;SDS011;74539;43.518;1.504;2023-12-14T10:05:43;8.50;;;1.42;;
84355;SDS011;74539;43.518;1.504;2023-12-14T10:08:09;4.72;;;1.60;;
84355;SDS011;74539;43.518;1.504;2023-12-14T10:10:34;4.15;;;1.00;;
84355;SDS011;74539;43.518;1.504;2023-12-14T10:13:00;1.83;;;1.00;;
84355;SDS011;74539;43.518;1.504;2023-12-14T10:15:26;2.65;;;1.23;;
84355;SDS011;74539;43.518;1.504;2023-12-14T10:17:52;8.45;;;1.60;;
84355;SDS011;74539;43.518;1.504;2023-12-14T10:20:22;4.70;;;1.50;;
84355;SDS011;74539;43.518;1.504;2023-12-14T10:22:51;5.93;;;1.40;;
84355;SDS011;74539;43.518;1.504;2023-12-14T10:25:18;4.25;;;1.33;;
84355;SDS011;74539;43.518;1.504;2023-12-14T10:27:47;5.35;;;1.40;;
84355;SDS011;74539;43.518;1.504;2023-12-14T10:30:16;4.45;;;1.20;;
84355;SDS011;74539;43.518;1.504;2023-12-14T10:32:41;4.65;;;1.10;;
84355;SDS011;74539;43.518;1.504;2023-12-14T10:35:07;3.70;;;1.25;;
84355;SDS011;74539;43.518;1.504;2023-12-14T10:37:34;3.28;;;1.20;;
84355;SDS011;74539;43.518;1.504;2023-12-14T10:40:05;3.40;;;1.17;;
84355;SDS011;74539;43.518;1.504;2023-12-14T10:42:32;4.28;;;0.80;;
84355;SDS011;74539;43.518;1.504;2023-12-14T10:45:00;2.60;;;1.08;;
84355;SDS011;74539;43.518;1.504;2023-12-14T10:47:28;4.70;;;1.50;;
84355;SDS011;74539;43.518;1.504;2023-12-14T10:49:53;4.55;;;1.33;;
84355;SDS011;74539;43.518;1.504;2023-12-14T10:52:20;3.95;;;1.10;;
84355;SDS011;74539;43.518;1.504;2023-12-14T10:54:49;4.63;;;1.33;;
84355;SDS011;74539;43.518;1.504;2023-12-14T10:57:43;3.10;;;1.00;;
84355;SDS011;74539;43.518;1.504;2023-12-14T11:00:10;3.10;;;1.00;;
84355;SDS011;74539;43.518;1.504;2023-12-14T11:02:38;3.67;;;1.50;;
84355;SDS011;74539;43.518;1.504;2023-12-14T11:05:05;3.17;;;1.10;;
84355;SDS011;74539;43.518;1.504;2023-12-14T11:07:53;6.30;;;1.00;;
84355;SDS011;74539;43.518;1.504;2023-12-14T11:10:26;3.05;;;1.40;;
84355;SDS011;74539;43.518;1.504;2023-12-14T11:13:00;3.90;;;1.70;;
84355;SDS011;74539;43.518;1.504;2023-12-14T11:15:28;3.35;;;1.27;;
84355;SDS011;74539;43.518;1.504;2023-12-14T11:23:11;6.05;;;1.08;;
84355;SDS011;74539;43.518;1.504;2023-12-14T11:25:53;4.28;;;1.08;;
84355;SDS011;74539;43.518;1.504;2023-12-14T11:28:21;2.10;;;0.75;;
84355;SDS011;74539;43.518;1.504;2023-12-14T11:30:47;4.38;;;1.00;;
84355;SDS011;74539;43.518;1.504;2023-12-14T11:33:13;2.67;;;1.10;;
84355;SDS011;74539;43.518;1.504;2023-12-14T11:35:40;3.92;;;1.00;;
84355;SDS011;74539;43.518;1.504;2023-12-14T11:38:06;2.63;;;0.95;;
84355;SDS011;74539;43.518;1.504;2023-12-14T11:40:37;5.35;;;1.10;;
84355;SDS011;74539;43.518;1.504;2023-12-14T11:43:07;6.00;;;1.20;;
84355;SDS011;74539;43.518;1.504;2023-12-14T11:45:37;4.50;;;0.90;;
84355;SDS011;74539;43.518;1.504;2023-12-14T11:48:04;4.50;;;1.17;;
84355;SDS011;74539;43.518;1.504;2023-12-14T11:50:32;2.92;;;0.88;;
84355;SDS011;74539;43.518;1.504;2023-12-14T11:53:00;4.50;;;1.23;;
84355;SDS011;74539;43.518;1.504;2023-12-14T11:55:28;3.95;;;1.00;;
84355;SDS011;74539;43.518;1.504;2023-12-14T11:57:57;2.80;;;1.05;;
84355;SDS011;74539;43.518;1.504;2023-12-14T12:00:27;4.80;;;1.30;;
84355;SDS011;74539;43.518;1.504;2023-12-14T12:03:10;2.60;;;1.27;;
84355;SDS011;74539;43.518;1.504;2023-12-14T12:05:38;2.05;;;0.90;;
84355;SDS011;74539;43.518;1.504;2023-12-14T12:08:09;2.45;;;0.70;;
84355;SDS011;74539;43.518;1.504;2023-12-14T12:10:35;2.78;;;0.82;;
84355;SDS011;74539;43.518;1.504;2023-12-14T12:13:02;4.90;;;0.95;;
84355;SDS011;74539;43.518;1.504;2023-12-14T12:15:30;2.03;;;0.73;;
84355;SDS011;74539;43.518;1.504;2023-12-14T12:18:02;3.15;;;0.95;;
84355;SDS011;74539;43.518;1.504;2023-12-14T12:20:29;2.53;;;0.80;;
84355;SDS011;74539;43.518;1.504;2023-12-14T12:22:54;2.30;;;0.80;;
84355;SDS011;74539;43.518;1.504;2023-12-14T12:25:20;5.18;;;1.00;;
84355;SDS011;74539;43.518;1.504;2023-12-14T12:27:46;2.58;;;0.77;;
84355;SDS011;74539;43.518;1.504;2023-12-14T12:30:12;2.95;;;0.80;;
84355;SDS011;74539;43.518;1.504;2023-12-14T12:32:38;4.25;;;0.90;;
84355;SDS011;74539;43.518;1.504;2023-12-14T12:35:04;1.33;;;0.50;;
84355;SDS011;74539;43.518;1.504;2023-12-14T12:37:30;4.40;;;1.10;;
84355;SDS011;74539;43.518;1.504;2023-12-14T12:39:56;1.90;;;0.80;;
84355;SDS011;74539;43.518;1.504;2023-12-14T12:42:21;2.95;;;0.80;;
84355;SDS011;74539;43.518;1.504;2023-12-14T12:44:47;3.13;;;0.90;;
84355;SDS011;74539;43.518;1.504;2023-12-14T12:47:12;2.03;;;1.00;;
84355;SDS011;74539;43.518;1.504;2023-12-14T12:49:38;2.33;;;0.90;;
84355;SDS011;74539;43.518;1.504;2023-12-14T12:52:04;2.38;;;0.80;;
84355;SDS011;74539;43.518;1.504;2023-12-14T12:54:31;3.28;;;0.63;;
84355;SDS011;74539;43.518;1.504;2023-12-14T12:56:58;3.80;;;1.20;;
84355;SDS011;74539;43.518;1.504;2023-12-14T12:59:23;4.20;;;1.33;;
84355;SDS011;74539;43.518;1.504;2023-12-14T13:01:49;5.70;;;1.00;;
84355;SDS011;74539;43.518;1.504;2023-12-14T13:04:18;2.63;;;0.60;;
84355;SDS011;74539;43.518;1.504;2023-12-14T13:06:44;3.60;;;0.93;;
84355;SDS011;74539;43.518;1.504;2023-12-14T13:09:10;2.28;;;0.77;;
84355;SDS011;74539;43.518;1.504;2023-12-14T13:11:37;4.45;;;0.90;;
84355;SDS011;74539;43.518;1.504;2023-12-14T13:14:02;4.95;;;1.10;;
84355;SDS011;74539;43.518;1.504;2023-12-14T13:16:32;2.92;;;1.10;;
84355;SDS011;74539;43.518;1.504;2023-12-14T13:19:00;2.67;;;0.90;;
84355;SDS011;74539;43.518;1.504;2023-12-14T13:21:26;5.10;;;1.20;;
84355;SDS011;74539;43.518;1.504;2023-12-14T13:23:52;6.05;;;1.38;;
84355;SDS011;74539;43.518;1.504;2023-12-14T13:26:18;4.50;;;1.10;;
84355;SDS011;74539;43.518;1.504;2023-12-14T13:28:43;4.63;;;1.00;;
84355;SDS011;74539;43.518;1.504;2023-12-14T13:31:09;4.72;;;1.00;;
84355;SDS011;74539;43.518;1.504;2023-12-14T13:33:35;3.97;;;1.05;;
84355;SDS011;74539;43.518;1.504;2023-12-14T13:36:00;1.88;;;0.88;;
84355;SDS011;74539;43.518;1.504;2023-12-14T13:38:26;5.70;;;1.30;;
84355;SDS011;74539;43.518;1.504;2023-12-14T13:40:51;1.70;;;0.75;;
84355;SDS011;74539;43.518;1.504;2023-12-14T13:43:17;2.67;;;1.13;;
84355;SDS011;74539;43.518;1.504;2023-12-14T13:45:42;3.75;;;1.10;;
84355;SDS011;74539;43.518;1.504;2023-12-14T13:48:08;3.00;;;0.80;;
84355;SDS011;74539;43.518;1.504;2023-12-14T13:50:33;2.42;;;1.00;;
84355;SDS011;74539;43.518;1.504;2023-12-14T13:52:59;3.22;;;0.95;;
84355;SDS011;74539;43.518;1.504;2023-12-14T13:55:27;5.18;;;0.95;;
84355;SDS011;74539;43.518;1.504;2023-12-14T13:57:52;3.95;;;0.95;;
84355;SDS011;74539;43.518;1.504;2023-12-14T14:00:18;7.05;;;1.90;;
84355;SDS011;74539;43.518;1.504;2023-12-14T14:02:45;4.47;;;1.00;;
84355;SDS011;74539;43.518;1.504;2023-12-14T14:05:10;2.28;;;1.20;;
84355;SDS011;74539;43.518;1.504;2023-12-14T14:07:36;5.95;;;1.00;;
84355;SDS011;74539;43.518;1.504;2023-12-14T14:10:01;3.67;;;1.20;;
84355;SDS011;74539;43.518;1.504;2023-12-14T14:12:27;3.38;;;1.30;;
84355;SDS011;74539;43.518;1.504;2023-12-14T14:14:52;4.07;;;1.05;;
84355;SDS011;74539;43.518;1.504;2023-12-14T14:17:18;4.10;;;1.00;;
84355;SDS011;74539;43.518;1.504;2023-12-14T14:19:43;4.40;;;1.55;;
84355;SDS011;74539;43.518;1.504;2023-12-14T14:22:09;4.65;;;1.13;;
84355;SDS011;74539;43.518;1.504;2023-12-14T14:24:34;3.55;;;0.80;;
84355;SDS011;74539;43.518;1.504;2023-12-14T14:27:00;4.50;;;1.85;;
84355;SDS011;74539;43.518;1.504;2023-12-14T14:29:26;4.60;;;1.00;;
84355;SDS011;74539;43.518;1.504;2023-12-14T14:31:52;4.13;;;0.93;;
84355;SDS011;74539;43.518;1.504;2023-12-14T14:34:17;6.95;;;1.23;;
84355;SDS011;74539;43.518;1.504;2023-12-14T14:36:43;3.15;;;0.88;;
84355;SDS011;74539;43.518;1.504;2023-12-14T14:39:10;1.27;;;0.70;;
84355;SDS011;74539;43.518;1.504;2023-12-14T14:41:35;3.63;;;1.23;;
84355;SDS011;74539;43.518;1.504;2023-12-14T14:44:01;3.33;;;1.20;;
84355;SDS011;74539;43.518;1.504;2023-12-14T14:46:26;3.50;;;1.10;;